Time;durP1;ratioP1;P1;durP2;ratioP2;P2;SDS_P1;SDS_P2;PMS_P1;PMS_P2;Temp;Humidity;BMP_temperature;BMP_pressure;BME280_temperature;BME280_humidity;BME280_pressure;Samples;Min_cycle;Max_cycle;Signal;HPM_P1;HPM_P2
2023/03/22 00:00:23;;;;;;;51.28;37.20;;;29.20;78.50;;;;;;1855554;77;21822;-85
2023/03/22 00:02:56;;;;;;;43.92;37.40;;;29.20;78.80;;;;;;1827058;78;21248;-86
2023/03/22 00:05:29;;;;;;;46.68;36.63;;;29.20;78.90;;;;;;1859054;76;21127;-85
2023/03/22 00:07:59;;;;;;;42.33;36.65;;;29.20;78.70;;;;;;1874482;76;21720;-85
2023/03/22 00:10:30;;;;;;;47.35;35.78;;;29.20;78.60;;;;;;1882381;76;21139;-86
2023/03/22 00:13:01;;;;;;;43.33;36.25;;;29.30;78.80;;;;;;1881678;76;21166;-87
2023/03/22 00:15:32;;;;;;;45.35;37.30;;;29.30;79.00;;;;;;1878168;76;21139;-86
2023/03/22 00:18:04;;;;;;;43.65;35.70;;;29.30;79.00;;;;;;1858129;76;21162;-86
2023/03/22 00:20:38;;;;;;;42.13;35.38;;;29.30;79.20;;;;;;1849731;77;21138;-85
2023/03/22 00:23:08;;;;;;;42.62;36.60;;;29.30;78.80;;;;;;1849506;77;21512;-77
2023/03/22 00:25:39;;;;;;;43.68;33.75;;;29.20;79.00;;;;;;1858958;76;21226;-79
2023/03/22 00:28:09;;;;;;;41.73;35.63;;;29.30;79.20;;;;;;1851106;76;21208;-77
2023/03/22 00:30:40;;;;;;;44.38;35.58;;;29.30;79.00;;;;;;1866985;76;21151;-78
2023/03/22 00:33:11;;;;;;;42.45;36.53;;;29.30;78.80;;;;;;1855686;76;21124;-79
2023/03/22 00:35:50;;;;;;;44.67;36.93;;;29.40;78.90;;;;;;1826110;76;21154;-78
2023/03/22 00:38:21;;;;;;;53.38;37.40;;;29.40;78.70;;;;;;1791783;78;21706;-79
2023/03/22 00:40:54;;;;;;;48.30;36.00;;;29.40;78.80;;;;;;1796540;78;21267;-76
2023/03/22 00:43:25;;;;;;;54.60;36.45;;;29.50;78.80;;;;;;1826088;78;21565;-77
2023/03/22 00:45:57;;;;;;;52.25;37.45;;;29.50;78.90;;;;;;1843695;77;21592;-77
2023/03/22 00:48:28;;;;;;;44.65;36.05;;;29.50;79.00;;;;;;1798109;78;21262;-78
2023/03/22 00:50:59;;;;;;;44.60;36.00;;;29.50;78.90;;;;;;1820950;78;21351;-75
2023/03/22 00:53:31;;;;;;;40.98;35.08;;;29.50;78.90;;;;;;1798805;80;21999;-77
2023/03/22 00:56:03;;;;;;;45.88;35.55;;;29.50;79.40;;;;;;1801866;79;21551;-77
2023/03/22 00:58:34;;;;;;;43.33;34.67;;;29.40;79.10;;;;;;1832133;78;21118;-79
2023/03/22 01:01:06;;;;;;;46.77;34.88;;;29.50;78.90;;;;;;1855631;77;21926;-79
2023/03/22 01:03:37;;;;;;;44.55;36.68;;;29.40;78.50;;;;;;1847235;77;21147;-79
2023/03/22 01:06:09;;;;;;;42.10;35.38;;;29.50;78.90;;;;;;1850134;77;21147;-77
2023/03/22 01:08:41;;;;;;;71.00;37.48;;;29.50;78.80;;;;;;1844846;77;21144;-77
2023/03/22 01:11:13;;;;;;;106.35;38.80;;;29.60;78.40;;;;;;1843429;77;21164;-75
2023/03/22 01:13:44;;;;;;;43.83;35.48;;;29.60;78.60;;;;;;1842448;77;21185;-76
2023/03/22 01:16:15;;;;;;;43.85;35.52;;;29.60;77.80;;;;;;1848537;76;21507;-75
2023/03/22 01:18:46;;;;;;;48.63;36.03;;;29.70;78.30;;;;;;1852419;77;21567;-77
2023/03/22 01:21:17;;;;;;;47.43;34.73;;;29.80;78.20;;;;;;1840893;77;21116;-76
2023/03/22 01:23:48;;;;;;;56.73;36.35;;;29.90;77.20;;;;;;1848588;77;21150;-76
2023/03/22 01:26:19;;;;;;;49.83;35.65;;;29.90;78.10;;;;;;1844113;76;21095;-79
2023/03/22 01:28:50;;;;;;;46.18;37.40;;;29.90;78.10;;;;;;1849345;76;21173;-81
2023/03/22 01:31:21;;;;;;;47.15;35.92;;;29.90;78.00;;;;;;1849241;76;21133;-80
2023/03/22 01:33:53;;;;;;;48.00;36.42;;;30.00;78.00;;;;;;1849834;77;21691;-78
2023/03/22 01:36:24;;;;;;;51.73;36.85;;;30.00;77.60;;;;;;1846869;77;21584;-81
2023/03/22 01:38:56;;;;;;;46.80;36.00;;;30.00;77.90;;;;;;1822955;78;21182;-82
2023/03/22 01:41:27;;;;;;;48.28;38.02;;;30.10;77.60;;;;;;1851870;77;21953;-78
2023/03/22 01:44:12;;;;;;;42.17;37.28;;;30.20;77.20;;;;;;1855761;77;21963;-78
2023/03/22 01:46:45;;;;;;;47.73;37.10;;;30.30;77.00;;;;;;1841485;76;21115;-79
2023/03/22 01:49:21;;;;;;;46.10;38.00;;;30.40;77.40;;;;;;1857044;76;21159;-79
2023/03/22 01:51:52;;;;;;;;;;;30.40;77.10;;;;;;1851494;77;21162;-78
2023/03/22 01:54:39;;;;;;;49.05;36.93;;;30.40;76.30;;;;;;1846292;76;20239;-79
2023/03/22 01:57:10;;;;;;;51.37;37.83;;;30.50;76.50;;;;;;1847325;77;21123;-80
2023/03/22 01:59:43;;;;;;;44.77;35.38;;;30.60;76.90;;;;;;1852598;75;21128;-82
2023/03/22 02:02:17;;;;;;;53.42;35.98;;;30.60;76.40;;;;;;1875194;75;21473;-81
2023/03/22 02:04:56;;;;;;;44.18;35.00;;;30.70;75.70;;;;;;1827151;77;21163;-79
2023/03/22 02:07:30;;;;;;;45.17;36.70;;;30.80;75.10;;;;;;1802100;78;21185;-77
2023/03/22 02:09:56;;;;;;;50.85;35.98;;;30.90;74.90;;;;;;1879237;75;21100;-80
2023/03/22 02:13:03;;;;;;;45.40;33.30;;;31.00;74.80;;;;;;1869858;75;21228;-78
2023/03/22 02:15:41;;;;;;;47.43;35.80;;;31.10;73.50;;;;;;1862155;75;21751;-79
2023/03/22 02:18:49;;;;;;;48.15;34.40;;;31.20;74.00;;;;;;1880635;75;21139;-78
2023/03/22 02:21:39;;;;;;;47.25;33.45;;;31.30;72.70;;;;;;1869504;75;21160;-78
2023/03/22 02:24:33;;;;;;;41.48;33.55;;;31.40;72.00;;;;;;1869822;75;21195;-75
2023/03/22 02:27:28;;;;;;;45.88;33.60;;;31.40;71.60;;;;;;1882003;75;21241;-76
2023/03/22 02:30:02;;;;;;;38.45;32.20;;;31.40;71.60;;;;;;1876569;75;21621;-77
2023/03/22 02:33:04;;;;;;;52.75;32.58;;;31.50;71.50;;;;;;1866644;75;22056;-75
2023/03/22 02:35:47;;;;;;;49.75;32.35;;;31.70;71.50;;;;;;1851231;76;21068;-77
2023/03/22 02:38:31;;;;;;;39.25;33.42;;;31.80;69.70;;;;;;1850324;77;21094;-76
2023/03/22 02:41:14;;;;;;;38.50;31.50;;;31.90;69.30;;;;;;1886948;75;21082;-76
2023/03/22 02:44:06;;;;;;;40.20;32.88;;;32.10;68.50;;;;;;1863965;75;21562;-76
2023/03/22 02:46:45;;;;;;;41.80;33.00;;;32.20;68.50;;;;;;1866489;75;21133;-77
2023/03/22 02:49:40;;;;;;;41.50;33.63;;;32.30;68.10;;;;;;1894357;75;21087;-77
2023/03/22 02:52:17;;;;;;;40.43;31.97;;;32.30;68.60;;;;;;1859287;76;21256;-75
2023/03/22 02:58:28;;;;;;;37.23;30.92;;;32.60;67.50;;;;;;1847838;76;21153;-74
2023/03/22 03:01:05;;;;;;;42.55;31.45;;;32.70;66.00;;;;;;1854558;76;21133;-76
2023/03/22 03:03:36;;;;;;;;;;;32.90;66.10;;;;;;1870802;75;21393;-74
2023/03/22 03:06:10;;;;;;;35.30;30.62;;;33.10;65.30;;;;;;1877925;75;20557;-73
2023/03/22 03:08:42;;;;;;;39.30;31.40;;;33.10;65.10;;;;;;1866794;75;21214;-75
2023/03/22 03:11:13;;;;;;;33.30;28.12;;;33.30;63.40;;;;;;1878051;75;21114;-73
2023/03/22 03:13:49;;;;;;;37.58;28.35;;;33.40;62.10;;;;;;1858891;76;21176;-74
2023/03/22 03:16:25;;;;;;;37.33;28.23;;;33.40;62.00;;;;;;1853537;76;21144;-76
2023/03/22 03:19:18;;;;;;;31.37;28.00;;;33.50;61.70;;;;;;1866600;76;21151;-76
2023/03/22 03:21:52;;;;;;;34.73;28.92;;;33.70;61.50;;;;;;1857553;76;21170;-76
2023/03/22 03:24:31;;;;;;;31.93;27.80;;;33.70;58.80;;;;;;1843029;77;21120;-76
2023/03/22 03:27:20;;;;;;;30.57;27.37;;;33.80;59.50;;;;;;1840256;77;21129;-76
2023/03/22 03:30:03;;;;;;;32.38;26.45;;;33.80;59.50;;;;;;1852896;77;21146;-76
2023/03/22 03:32:40;;;;;;;32.88;26.75;;;33.80;59.40;;;;;;1831939;75;21146;-75
2023/03/22 03:35:36;;;;;;;55.55;29.10;;;33.90;58.30;;;;;;1818345;79;21053;-76
2023/03/22 03:38:12;;;;;;;29.23;26.05;;;34.00;58.60;;;;;;1833028;77;21123;-76
2023/03/22 03:40:46;;;;;;;34.50;27.58;;;34.10;58.30;;;;;;1858362;75;21308;-75
2023/03/22 03:43:18;;;;;;;31.12;26.68;;;34.30;57.70;;;;;;1864118;74;21114;-75
2023/03/22 03:45:51;;;;;;;32.48;27.07;;;34.40;58.00;;;;;;1859872;76;21221;-75
2023/03/22 03:48:28;;;;;;;38.90;27.20;;;34.50;57.50;;;;;;1860842;76;21772;-75
2023/03/22 03:51:01;;;;;;;36.05;26.70;;;34.60;57.70;;;;;;1864510;76;21616;-75
2023/03/22 03:53:32;;;;;;;33.08;29.57;;;34.70;57.40;;;;;;1837681;77;21113;-75
2023/03/22 03:56:03;;;;;;;37.50;30.97;;;34.80;57.10;;;;;;1803174;78;21190;-75
2023/03/22 03:58:34;;;;;;;32.03;27.52;;;34.90;56.30;;;;;;1844736;77;21198;-75
2023/03/22 04:01:05;;;;;;;32.55;26.02;;;35.00;55.90;;;;;;1837076;76;21162;-76
2023/03/22 04:03:37;;;;;;;36.33;28.00;;;35.10;54.90;;;;;;1869137;75;21774;-73
2023/03/22 04:06:08;;;;;;;37.20;30.37;;;35.10;55.80;;;;;;1872043;75;21162;-74
2023/03/22 04:08:40;;;;;;;33.33;27.52;;;35.10;54.90;;;;;;1845157;76;21617;-75
2023/03/22 04:11:11;;;;;;;33.02;26.20;;;35.10;54.80;;;;;;1888369;75;21163;-74
2023/03/22 04:13:42;;;;;;;34.75;28.47;;;35.20;55.30;;;;;;1881575;76;21233;-74
2023/03/22 04:16:13;;;;;;;37.55;27.65;;;35.30;55.10;;;;;;1874118;76;21226;-76
2023/03/22 04:18:44;;;;;;;33.80;26.85;;;35.30;55.30;;;;;;1836733;76;21150;-75
2023/03/22 04:21:15;;;;;;;32.08;27.17;;;35.40;54.50;;;;;;1861210;76;21370;-75
2023/03/22 04:23:47;;;;;;;34.27;27.10;;;35.50;54.50;;;;;;1868688;76;21120;-73
2023/03/22 04:26:18;;;;;;;34.27;26.87;;;35.60;54.60;;;;;;1861125;76;21121;-74
2023/03/22 04:28:49;;;;;;;33.80;26.95;;;35.60;54.00;;;;;;1879226;76;21128;-74
2023/03/22 04:31:20;;;;;;;28.85;24.47;;;35.70;53.40;;;;;;1873594;76;21226;-75
2023/03/22 04:33:53;;;;;;;29.80;25.77;;;35.70;52.70;;;;;;1870453;76;21275;-75
2023/03/22 04:36:25;;;;;;;43.52;28.42;;;35.80;52.80;;;;;;1854949;76;21136;-75
2023/03/22 04:38:55;;;;;;;29.70;24.92;;;35.80;53.30;;;;;;1858862;76;21349;-75
2023/03/22 04:41:27;;;;;;;28.55;25.35;;;35.80;53.00;;;;;;1826056;77;21165;-74
2023/03/22 04:44:03;;;;;;;38.13;24.92;;;35.90;52.80;;;;;;1855697;76;21752;-75
2023/03/22 04:46:43;;;;;;;32.67;25.15;;;36.00;52.10;;;;;;1866987;76;21144;-76
2023/03/22 04:49:14;;;;;;;32.08;23.75;;;36.10;52.70;;;;;;1867111;76;21170;-76
2023/03/22 04:51:45;;;;;;;35.23;25.12;;;36.20;51.80;;;;;;1855527;76;21146;-75
2023/03/22 04:54:16;;;;;;;26.27;23.52;;;36.20;51.30;;;;;;1855416;75;21842;-75
2023/03/22 04:56:48;;;;;;;33.02;24.43;;;36.30;51.30;;;;;;1860296;76;21180;-76
2023/03/22 04:59:19;;;;;;;29.37;23.98;;;36.30;51.00;;;;;;1853584;76;21250;-75
2023/03/22 05:01:51;;;;;;;28.45;23.07;;;36.40;50.90;;;;;;1855841;76;21164;-74
2023/03/22 05:04:24;;;;;;;26.75;21.97;;;36.50;50.30;;;;;;1872523;76;21140;-74
2023/03/22 05:06:55;;;;;;;23.50;21.00;;;36.60;49.40;;;;;;1859617;76;21152;-73
2023/03/22 05:09:27;;;;;;;26.30;20.70;;;36.70;49.60;;;;;;1862462;76;21228;-74
2023/03/22 05:11:58;;;;;;;25.40;20.90;;;36.70;48.20;;;;;;1867900;76;21156;-75
2023/03/22 05:14:30;;;;;;;23.40;20.52;;;36.70;47.80;;;;;;1860755;76;21998;-74
2023/03/22 05:17:02;;;;;;;23.83;20.90;;;36.80;47.70;;;;;;1855709;77;21598;-75
2023/03/22 05:19:34;;;;;;;29.57;22.50;;;36.80;48.20;;;;;;1866952;76;21596;-75
2023/03/22 05:22:05;;;;;;;26.05;21.30;;;36.90;47.80;;;;;;1885542;76;21129;-75
2023/03/22 05:24:36;;;;;;;23.73;20.88;;;37.10;46.80;;;;;;1861959;76;21201;-75
2023/03/22 05:27:09;;;;;;;22.42;20.08;;;37.00;47.20;;;;;;1876583;76;21137;-75
2023/03/22 05:29:43;;;;;;;22.60;20.27;;;37.00;46.60;;;;;;1868047;76;21592;-75
2023/03/22 05:32:13;;;;;;;23.95;19.30;;;37.10;46.30;;;;;;1859611;76;21660;-75
2023/03/22 05:34:44;;;;;;;22.55;20.12;;;37.10;46.10;;;;;;1862326;76;22002;-75
2023/03/22 05:37:15;;;;;;;23.42;18.48;;;37.20;45.80;;;;;;1846134;76;21116;-74
2023/03/22 05:39:46;;;;;;;24.25;18.90;;;37.20;44.50;;;;;;1849403;76;21130;-75
2023/03/22 05:42:17;;;;;;;21.07;18.32;;;37.30;44.90;;;;;;1849377;76;21154;-74
2023/03/22 05:44:48;;;;;;;22.17;18.85;;;37.30;44.60;;;;;;1853361;77;21186;-74
2023/03/22 05:47:19;;;;;;;22.60;20.12;;;37.30;44.80;;;;;;1841592;76;21146;-75
2023/03/22 05:49:50;;;;;;;29.57;20.35;;;37.30;45.70;;;;;;1805052;79;21175;-75
2023/03/22 05:52:21;;;;;;;23.92;19.32;;;37.30;45.60;;;;;;1852025;76;21193;-75
2023/03/22 05:57:45;;;;;;;23.73;21.12;;;37.40;44.30;;;;;;1888045;75;21188;-75
2023/03/22 06:03:09;;;;;;;23.75;18.00;;;37.50;42.80;;;;;;1884355;75;21233;-73
2023/03/22 06:05:42;;;;;;;23.55;18.50;;;37.50;43.80;;;;;;1894271;74;21375;-75
2023/03/22 06:08:13;;;;;;;25.85;18.65;;;37.50;43.50;;;;;;1882943;75;21166;-75
2023/03/22 06:10:44;;;;;;;20.25;16.97;;;37.60;43.80;;;;;;1905928;74;21843;-75
2023/03/22 06:13:16;;;;;;;19.87;16.23;;;37.80;43.20;;;;;;1909062;74;21174;-76
2023/03/22 06:15:47;;;;;;;22.60;18.10;;;37.80;42.70;;;;;;1935116;74;21584;-74
2023/03/22 06:18:19;;;;;;;18.90;16.87;;;37.80;42.60;;;;;;1934711;74;21139;-74
2023/03/22 06:20:50;;;;;;;21.62;16.62;;;37.80;42.60;;;;;;1918647;74;21132;-75
2023/03/22 06:23:21;;;;;;;23.27;18.00;;;37.80;42.80;;;;;;1901300;74;21394;-74
2023/03/22 06:25:52;;;;;;;23.87;15.78;;;37.80;42.90;;;;;;1932062;73;21102;-74
2023/03/22 06:28:28;;;;;;;43.25;18.52;;;37.80;43.00;;;;;;1952893;73;21182;-75
2023/03/22 06:30:56;;;;;;;21.48;16.65;;;37.80;43.30;;;;;;1957656;73;21188;-75
2023/03/22 06:33:27;;;;;;;28.70;18.10;;;37.80;43.50;;;;;;1949413;73;21112;-74
2023/03/22 06:36:00;;;;;;;21.73;15.45;;;37.90;43.60;;;;;;1935784;73;21111;-75
2023/03/22 06:38:31;;;;;;;22.45;15.88;;;37.90;43.20;;;;;;1932576;73;21658;-75
2023/03/22 06:41:02;;;;;;;17.57;15.55;;;37.90;43.70;;;;;;1928362;74;21355;-76
2023/03/22 06:43:34;;;;;;;20.05;15.18;;;37.90;43.20;;;;;;1943590;73;21217;-75
2023/03/22 06:46:05;;;;;;;23.32;16.15;;;38.00;43.50;;;;;;1966578;73;21135;-77
2023/03/22 06:48:37;;;;;;;30.05;16.32;;;37.90;43.50;;;;;;1963803;73;21583;-74
2023/03/22 06:51:09;;;;;;;19.85;14.80;;;37.90;43.60;;;;;;1951576;73;21760;-74
2023/03/22 06:53:40;;;;;;;16.65;14.80;;;37.90;43.30;;;;;;1932960;73;21837;-75
2023/03/22 06:56:11;;;;;;;21.50;15.93;;;37.90;43.50;;;;;;1933544;73;21404;-76
2023/03/22 06:58:43;;;;;;;25.25;15.05;;;37.90;43.90;;;;;;1933231;73;21121;-74
2023/03/22 07:01:14;;;;;;;20.50;14.70;;;37.90;43.70;;;;;;1954422;73;21139;-74
2023/03/22 07:03:45;;;;;;;19.77;14.83;;;37.90;43.70;;;;;;1938571;73;21141;-75
2023/03/22 07:06:17;;;;;;;52.95;16.57;;;37.90;44.00;;;;;;1962342;73;21183;-77
2023/03/22 07:08:48;;;;;;;17.70;14.10;;;37.80;43.40;;;;;;1929519;73;21610;-75
2023/03/22 07:11:21;;;;;;;21.17;14.43;;;37.80;43.60;;;;;;1937234;73;21447;-76
2023/03/22 07:13:53;;;;;;;25.08;15.68;;;37.80;43.40;;;;;;1944782;73;21170;-77
2023/03/22 07:16:24;;;;;;;20.12;14.95;;;37.70;43.80;;;;;;1953315;73;21150;-76
2023/03/22 07:18:56;;;;;;;21.42;16.17;;;37.70;43.50;;;;;;1937540;73;21443;-75
2023/03/22 07:21:27;;;;;;;17.20;14.23;;;37.70;43.70;;;;;;1921591;73;21914;-75
2023/03/22 07:23:58;;;;;;;76.53;20.12;;;37.70;43.40;;;;;;1920340;73;21225;-75
2023/03/22 07:26:29;;;;;;;23.22;15.35;;;37.70;43.60;;;;;;1925603;74;21147;-74
2023/03/22 07:29:02;;;;;;;24.07;14.53;;;37.70;42.90;;;;;;1919342;74;21108;-75
2023/03/22 07:31:36;;;;;;;25.10;14.35;;;37.80;42.80;;;;;;1848527;77;21118;-77
2023/03/22 07:34:08;;;;;;;39.05;18.42;;;37.80;42.80;;;;;;1890068;74;22421;-76
2023/03/22 07:36:39;;;;;;;28.87;15.45;;;37.80;42.80;;;;;;1866208;75;21122;-74
2023/03/22 07:39:10;;;;;;;24.92;17.27;;;37.80;42.50;;;;;;1906358;74;21686;-75
2023/03/22 07:41:47;;;;;;;26.50;14.05;;;37.80;42.00;;;;;;1892417;74;21845;-74
2023/03/22 07:44:31;;;;;;;18.25;13.80;;;37.80;42.30;;;;;;1873615;75;21562;-76
2023/03/22 07:47:02;;;;;;;23.45;14.85;;;37.80;42.40;;;;;;1898614;74;21167;-75
2023/03/22 07:49:33;;;;;;;16.82;13.48;;;37.70;42.30;;;;;;1906593;74;21366;-75
2023/03/22 07:52:05;;;;;;;17.07;14.30;;;37.70;43.70;;;;;;1869567;75;21190;-75
2023/03/22 07:54:36;;;;;;;22.42;14.53;;;37.70;42.00;;;;;;1904076;74;21134;-75
2023/03/22 07:57:07;;;;;;;20.75;14.70;;;37.70;42.50;;;;;;1898953;74;21204;-75
2023/03/22 07:59:38;;;;;;;15.55;13.53;;;37.70;42.50;;;;;;1866216;75;21704;-76
2023/03/22 08:02:11;;;;;;;46.08;16.67;;;37.70;42.30;;;;;;1895718;75;21209;-76
2023/03/22 08:04:44;;;;;;;31.25;16.23;;;37.80;42.00;;;;;;1904906;74;21110;-77
2023/03/22 08:07:17;;;;;;;19.92;14.78;;;37.80;42.50;;;;;;1888752;75;21072;-76
2023/03/22 08:09:49;;;;;;;16.93;13.58;;;37.80;42.30;;;;;;1892516;75;21159;-75
2023/03/22 08:12:40;;;;;;;17.77;14.28;;;37.80;41.40;;;;;;1872319;74;21587;-76
2023/03/22 08:15:12;;;;;;;19.57;14.18;;;37.80;41.40;;;;;;1845904;77;21257;-75
2023/03/22 08:17:44;;;;;;;18.62;14.15;;;37.80;41.70;;;;;;1852464;77;21098;-75
2023/03/22 08:20:17;;;;;;;16.37;14.28;;;37.70;42.20;;;;;;1808874;79;21245;-74
2023/03/22 08:22:48;;;;;;;21.25;15.13;;;37.70;42.10;;;;;;1847698;76;21165;-78
2023/03/22 08:25:20;;;;;;;17.17;15.25;;;37.60;42.20;;;;;;1820052;77;21091;-76
2023/03/22 08:27:52;;;;;;;20.02;13.93;;;37.60;42.70;;;;;;1860286;76;21245;-74
2023/03/22 08:30:23;;;;;;;20.77;14.23;;;37.60;42.00;;;;;;1811786;77;21117;-77
2023/03/22 08:32:55;;;;;;;17.98;14.65;;;37.60;42.20;;;;;;1806970;78;21120;-76
2023/03/22 08:35:27;;;;;;;22.65;14.60;;;37.60;42.50;;;;;;1850771;77;21146;-77
2023/03/22 08:38:00;;;;;;;18.90;13.78;;;37.50;42.30;;;;;;1811738;77;21910;-76
2023/03/22 08:40:31;;;;;;;21.07;15.53;;;37.50;42.90;;;;;;1848151;77;21127;-76
2023/03/22 08:43:02;;;;;;;24.15;15.68;;;37.50;42.90;;;;;;1847282;77;21409;-75
2023/03/22 08:45:33;;;;;;;18.10;15.05;;;37.50;42.80;;;;;;1870500;76;21159;-75
2023/03/22 08:48:04;;;;;;;18.17;15.53;;;37.50;42.40;;;;;;1873869;75;21370;-76
2023/03/22 08:50:38;;;;;;;20.17;15.58;;;37.50;42.50;;;;;;1787989;78;21256;-75
2023/03/22 08:53:10;;;;;;;25.32;16.10;;;37.50;42.90;;;;;;1837494;76;21220;-77
2023/03/22 08:55:43;;;;;;;21.95;14.90;;;37.50;42.60;;;;;;1828789;77;21676;-74
2023/03/22 08:58:22;;;;;;;22.35;15.93;;;37.50;42.30;;;;;;1890637;76;21091;-75
2023/03/22 09:00:53;;;;;;;19.37;16.32;;;37.50;42.50;;;;;;1848371;76;21877;-75
2023/03/22 09:03:24;;;;;;;25.25;15.63;;;37.50;42.80;;;;;;1872838;76;21152;-77
2023/03/22 09:05:56;;;;;;;17.98;15.25;;;37.50;42.50;;;;;;1824082;77;21163;-76
2023/03/22 09:08:28;;;;;;;20.57;16.25;;;37.50;42.50;;;;;;1835548;76;21136;-75
2023/03/22 09:10:59;;;;;;;18.73;15.60;;;37.50;42.40;;;;;;1831617;76;21142;-74
2023/03/22 09:13:30;;;;;;;17.75;15.60;;;37.40;42.70;;;;;;1815807;78;21143;-75
2023/03/22 09:16:03;;;;;;;19.27;15.45;;;37.40;43.00;;;;;;1860838;76;21800;-76
2023/03/22 09:18:34;;;;;;;31.50;16.93;;;37.40;43.20;;;;;;1845482;77;21103;-75
2023/03/22 09:21:06;;;;;;;25.70;16.95;;;37.40;42.90;;;;;;1874503;76;21093;-76
2023/03/22 09:23:40;;;;;;;18.15;16.23;;;37.40;43.20;;;;;;1838130;77;21257;-76
2023/03/22 09:26:17;;;;;;;21.77;17.17;;;37.40;43.40;;;;;;1863626;75;21225;-76
2023/03/22 09:28:49;;;;;;;19.67;16.87;;;37.30;43.70;;;;;;1871725;75;21488;-75
2023/03/22 09:31:20;;;;;;;18.57;16.55;;;37.30;43.30;;;;;;1887104;75;21215;-75
2023/03/22 09:33:52;;;;;;;25.97;16.82;;;37.20;43.60;;;;;;1831817;78;21666;-75
2023/03/22 09:36:23;;;;;;;23.38;17.00;;;37.20;44.10;;;;;;1826500;77;21502;-76
2023/03/22 09:38:55;;;;;;;18.25;16.32;;;37.20;44.30;;;;;;1872696;75;21191;-76
2023/03/22 09:41:40;;;;;;;24.00;17.17;;;37.20;44.20;;;;;;1836231;77;21192;-78
2023/03/22 09:44:21;;;;;;;20.92;16.45;;;37.10;44.00;;;;;;1876605;75;21142;-79
2023/03/22 09:46:54;;;;;;;22.65;16.85;;;37.10;43.90;;;;;;1860212;77;21170;-76
2023/03/22 09:49:27;;;;;;;24.95;16.93;;;37.10;43.90;;;;;;1870691;76;21243;-76
2023/03/22 09:51:59;;;;;;;21.75;16.35;;;37.10;43.60;;;;;;1879753;75;21622;-77
2023/03/22 09:54:41;;;;;;;22.13;16.73;;;37.10;43.60;;;;;;1850782;77;21401;-76
2023/03/22 09:57:32;;;;;;;19.10;16.62;;;37.10;43.20;;;;;;1854211;76;21301;-78
2023/03/22 10:00:11;;;;;;;24.75;17.17;;;37.00;43.10;;;;;;1876372;75;21698;-78
2023/03/22 10:02:56;;;;;;;22.55;16.95;;;37.10;43.50;;;;;;1876895;75;21607;-81
2023/03/22 10:05:41;;;;;;;26.02;17.82;;;37.00;43.00;;;;;;1867785;75;21581;-82
2023/03/22 10:08:27;;;;;;;35.60;17.00;;;37.00;43.30;;;;;;1866937;75;21247;-82
2023/03/22 10:11:00;;;;;;;20.40;16.27;;;37.00;43.30;;;;;;1823750;78;21216;-81
2023/03/22 10:13:36;;;;;;;24.87;17.30;;;37.00;43.50;;;;;;1837458;77;21555;-80
2023/03/22 10:16:09;;;;;;;21.10;17.00;;;36.90;43.00;;;;;;1834941;77;21612;-82
2023/03/22 10:18:46;;;;;;;22.50;16.95;;;36.90;43.40;;;;;;1813868;78;21239;-82
2023/03/22 10:21:24;;;;;;;20.80;16.20;;;36.80;43.20;;;;;;1779237;80;21947;-81
2023/03/22 10:24:06;;;;;;;22.67;17.15;;;36.80;43.40;;;;;;1829888;77;21162;-82
2023/03/22 10:26:45;;;;;;;22.25;17.12;;;36.80;43.50;;;;;;1794932;78;21150;-81
2023/03/22 10:29:36;;;;;;;22.22;16.60;;;36.80;43.40;;;;;;1823205;78;21563;-81
2023/03/22 10:32:19;;;;;;;23.45;16.95;;;36.80;43.70;;;;;;1772468;81;21078;-81
2023/03/22 10:34:51;;;;;;;20.97;17.25;;;36.80;43.80;;;;;;1816844;78;21602;-84
2023/03/22 10:37:25;;;;;;;22.15;17.12;;;36.70;43.30;;;;;;1839354;77;21142;-82
2023/03/22 10:39:58;;;;;;;23.40;17.50;;;36.70;43.40;;;;;;1817453;77;21240;-82
2023/03/22 10:42:30;;;;;;;27.30;18.77;;;36.70;44.00;;;;;;1802483;78;21228;-81
2023/03/22 10:45:09;;;;;;;20.35;17.20;;;36.70;44.10;;;;;;1827620;77;21130;-82
2023/03/22 10:47:46;;;;;;;23.07;17.05;;;36.60;44.10;;;;;;1833128;77;21900;-82
2023/03/22 10:50:22;;;;;;;21.90;17.07;;;36.60;44.20;;;;;;1833106;77;21194;-82
2023/03/22 10:53:07;;;;;;;18.42;16.45;;;36.60;44.30;;;;;;1846719;77;21212;-82
2023/03/22 10:55:42;;;;;;;25.23;18.83;;;36.50;44.60;;;;;;1803625;78;21140;-81
2023/03/22 10:58:19;;;;;;;19.98;17.37;;;36.50;44.50;;;;;;1786512;78;21153;-83
2023/03/22 11:00:52;;;;;;;21.15;18.42;;;36.40;44.80;;;;;;1832441;77;21975;-83
2023/03/22 11:03:39;;;;;;;21.82;18.25;;;36.40;44.50;;;;;;1832452;77;21116;-81
2023/03/22 11:06:18;;;;;;;27.58;18.12;;;36.40;44.60;;;;;;1834526;77;21254;-83
2023/03/22 11:08:54;;;;;;;26.93;17.92;;;36.30;45.00;;;;;;1832302;78;21122;-82
2023/03/22 11:11:36;;;;;;;20.72;17.62;;;36.30;45.00;;;;;;1800078;78;21273;-82
2023/03/22 11:14:09;;;;;;;26.73;18.67;;;36.20;44.80;;;;;;1846979;77;21622;-82
2023/03/22 11:16:57;;;;;;;20.80;18.12;;;36.20;45.00;;;;;;1876093;75;21155;-82
2023/03/22 11:19:42;;;;;;;24.20;17.55;;;36.10;45.00;;;;;;1836613;78;21222;-82
2023/03/22 11:22:32;;;;;;;28.67;18.48;;;36.10;45.30;;;;;;1879856;76;21566;-81
2023/03/22 11:25:05;;;;;;;28.35;18.42;;;36.10;45.50;;;;;;1838091;77;21621;-82
2023/03/22 11:27:36;;;;;;;21.12;17.23;;;36.00;45.70;;;;;;1840973;76;21154;-80
2023/03/22 11:30:25;;;;;;;25.23;17.73;;;36.00;45.90;;;;;;1849539;77;21091;-81
2023/03/22 11:33:10;;;;;;;24.37;17.02;;;35.90;45.80;;;;;;1880825;75;21716;-81
2023/03/22 11:35:44;;;;;;;24.52;17.07;;;35.90;45.80;;;;;;1872488;75;21745;-81
2023/03/22 11:38:21;;;;;;;23.73;17.10;;;35.80;45.90;;;;;;1839093;77;21555;-80
2023/03/22 11:41:01;;;;;;;22.75;17.17;;;35.80;45.90;;;;;;1849313;77;22208;-81
2023/03/22 11:43:55;;;;;;;19.07;16.42;;;35.80;46.60;;;;;;1871191;75;21752;-81
2023/03/22 11:46:31;;;;;;;21.93;17.42;;;35.70;46.70;;;;;;1834426;78;21111;-81
2023/03/22 11:49:05;;;;;;;18.82;16.42;;;35.70;46.60;;;;;;1882747;75;21209;-80
2023/03/22 11:51:40;;;;;;;21.25;17.15;;;35.70;47.00;;;;;;1869488;75;21131;-80
2023/03/22 11:54:26;;;;;;;19.67;17.52;;;35.60;47.10;;;;;;1830798;77;21181;-81
2023/03/22 11:57:00;;;;;;;23.17;18.67;;;35.60;47.40;;;;;;1835805;78;21544;-82
2023/03/22 11:59:41;;;;;;;26.45;19.80;;;35.60;47.50;;;;;;1871385;76;21299;-81
2023/03/22 12:03:09;;;;;;;;;;;;;;;;;;;;;
2023/03/22 12:06:03;;;;;;;;;;;;;;;;;;;;;
2023/03/22 12:08:35;;;;;;;34.73;22.95;;;35.50;47.90;;;;;;1785367;77;21148;-80
2023/03/22 12:11:09;;;;;;;36.55;26.15;;;35.40;48.00;;;;;;1860010;75;21173;-79
2023/03/22 12:13:45;;;;;;;30.50;23.25;;;35.40;48.30;;;;;;1835449;78;21126;-80
2023/03/22 12:16:19;;;;;;;36.23;23.65;;;35.40;48.40;;;;;;1823798;78;21209;-78
2023/03/22 12:19:15;;;;;;;27.95;23.27;;;35.30;48.30;;;;;;1849395;77;21181;-80
2023/03/22 12:21:48;;;;;;;26.45;23.38;;;35.30;48.40;;;;;;1837835;76;21534;-78
2023/03/22 12:24:25;;;;;;;28.35;23.25;;;35.30;48.60;;;;;;1837775;77;21194;-78
2023/03/22 12:26:58;;;;;;;27.35;23.15;;;35.30;48.60;;;;;;1806586;79;21158;-79
2023/03/22 12:29:31;;;;;;;29.95;22.95;;;35.20;48.70;;;;;;1817635;77;22007;-78
2023/03/22 12:32:05;;;;;;;26.75;23.25;;;35.20;48.80;;;;;;1848854;76;21256;-79
2023/03/22 12:34:42;;;;;;;33.15;23.73;;;35.10;48.80;;;;;;1814258;79;21143;-79
2023/03/22 12:37:16;;;;;;;30.75;23.45;;;35.10;49.00;;;;;;1849851;77;21244;-78
2023/03/22 12:40:04;;;;;;;28.85;23.55;;;35.10;49.10;;;;;;1817628;79;21137;-78
2023/03/22 12:42:41;;;;;;;28.98;22.65;;;35.10;49.20;;;;;;1834841;77;21682;-78
2023/03/22 12:45:15;;;;;;;30.72;22.80;;;35.10;50.00;;;;;;1794820;77;21111;-79
2023/03/22 12:47:54;;;;;;;30.00;22.15;;;35.00;49.30;;;;;;1837124;77;21129;-78
2023/03/22 12:50:40;;;;;;;29.90;22.77;;;35.10;49.40;;;;;;1783204;78;22053;-79
2023/03/22 12:53:17;;;;;;;28.83;21.35;;;35.00;49.50;;;;;;1836871;76;21153;-79
2023/03/22 12:55:51;;;;;;;25.25;21.75;;;35.00;49.60;;;;;;1809158;77;21139;-79
2023/03/22 12:58:24;;;;;;;25.15;21.87;;;35.00;49.70;;;;;;1845589;76;21138;-79
2023/03/22 13:01:02;;;;;;;27.00;22.52;;;35.00;49.90;;;;;;1848025;76;21268;-80
2023/03/22 13:03:45;;;;;;;30.88;22.67;;;34.90;50.00;;;;;;1847960;76;21219;-80
2023/03/22 13:06:45;;;;;;;32.70;22.52;;;35.00;50.10;;;;;;1833550;77;21530;-80
2023/03/22 13:09:36;;;;;;;28.35;22.13;;;34.90;50.10;;;;;;1828213;77;21177;-80
2023/03/22 13:12:23;;;;;;;27.40;21.50;;;34.80;50.30;;;;;;1846986;76;21109;-80
2023/03/22 13:14:59;;;;;;;24.77;21.73;;;34.80;50.30;;;;;;1828403;77;21100;-78
2023/03/22 13:17:34;;;;;;;28.30;21.10;;;34.80;50.50;;;;;;1878610;76;21681;-78
2023/03/22 13:20:18;;;;;;;24.77;21.27;;;34.70;50.60;;;;;;1853399;76;21931;-79